sensor_id;sensor_type;location;lat;lon;timestamp;pressure;altitude;pressure_sealevel;temperature;humidity
45403;BME280;47427;51.976;5.326;2022-12-18T00:00:28;102792.13;;;-3.98;100.00
45403;BME280;47427;51.976;5.326;2022-12-18T00:03:52;102789.03;;;-3.65;100.00
45403;BME280;47427;51.976;5.326;2022-12-18T00:07:14;102806.38;;;-3.49;99.63
45403;BME280;47427;51.976;5.326;2022-12-18T00:10:36;102799.00;;;-3.76;99.45
45403;BME280;47427;51.976;5.326;2022-12-18T00:13:59;102799.91;;;-3.75;100.00
45403;BME280;47427;51.976;5.326;2022-12-18T00:17:21;102779.34;;;-3.68;100.00
45403;BME280;47427;51.976;5.326;2022-12-18T00:20:42;102780.84;;;-3.47;99.75
45403;BME280;47427;51.976;5.326;2022-12-18T00:24:04;102752.91;;;-3.60;99.75
45403;BME280;47427;51.976;5.326;2022-12-18T00:27:26;102757.03;;;-3.76;99.92
45403;BME280;47427;51.976;5.326;2022-12-18T00:30:47;102781.97;;;-3.82;100.00
45403;BME280;47427;51.976;5.326;2022-12-18T00:34:13;102769.31;;;-3.74;100.00
45403;BME280;47427;51.976;5.326;2022-12-18T00:37:35;102786.34;;;-3.74;100.00
45403;BME280;47427;51.976;5.326;2022-12-18T00:40:56;102770.25;;;-4.18;100.00
45403;BME280;47427;51.976;5.326;2022-12-18T00:44:19;102764.50;;;-4.08;100.00
45403;BME280;47427;51.976;5.326;2022-12-18T00:47:42;102772.66;;;-3.82;100.00
45403;BME280;47427;51.976;5.326;2022-12-18T00:51:05;102788.34;;;-3.72;100.00
45403;BME280;47427;51.976;5.326;2022-12-18T00:54:29;102782.22;;;-3.95;100.00
45403;BME280;47427;51.976;5.326;2022-12-18T00:57:52;102776.78;;;-3.68;99.88
45403;BME280;47427;51.976;5.326;2022-12-18T01:01:16;102772.97;;;-4.16;100.00
45403;BME280;47427;51.976;5.326;2022-12-18T01:04:39;102774.06;;;-4.14;100.00
45403;BME280;47427;51.976;5.326;2022-12-18T01:08:02;102768.00;;;-4.07;99.79
45403;BME280;47427;51.976;5.326;2022-12-18T01:11:25;102781.63;;;-4.23;100.00
45403;BME280;47427;51.976;5.326;2022-12-18T01:14:48;102776.34;;;-4.39;100.00
45403;BME280;47427;51.976;5.326;2022-12-18T01:18:11;102793.34;;;-4.32;100.00
45403;BME280;47427;51.976;5.326;2022-12-18T01:21:34;102795.44;;;-4.65;100.00
45403;BME280;47427;51.976;5.326;2022-12-18T01:24:59;102787.19;;;-4.70;100.00
45403;BME280;47427;51.976;5.326;2022-12-18T01:28:22;102798.91;;;-4.86;100.00
45403;BME280;47427;51.976;5.326;2022-12-18T01:31:45;102800.94;;;-4.91;100.00
45403;BME280;47427;51.976;5.326;2022-12-18T01:35:08;102779.34;;;-5.07;100.00
45403;BME280;47427;51.976;5.326;2022-12-18T01:38:31;102784.28;;;-5.16;100.00
45403;BME280;47427;51.976;5.326;2022-12-18T01:41:54;102787.94;;;-5.07;100.00
45403;BME280;47427;51.976;5.326;2022-12-18T01:45:31;102783.72;;;-5.28;100.00
45403;BME280;47427;51.976;5.326;2022-12-18T01:48:57;102793.44;;;-5.18;100.00
45403;BME280;47427;51.976;5.326;2022-12-18T01:52:22;102800.72;;;-5.07;100.00
45403;BME280;47427;51.976;5.326;2022-12-18T01:55:50;102791.41;;;-5.20;100.00
45403;BME280;47427;51.976;5.326;2022-12-18T01:59:13;102772.59;;;-5.28;100.00
45403;BME280;47427;51.976;5.326;2022-12-18T02:02:35;102783.19;;;-5.25;100.00
45403;BME280;47427;51.976;5.326;2022-12-18T02:09:48;102798.31;;;-5.27;100.00
45403;BME280;47427;51.976;5.326;2022-12-18T02:17:28;102810.41;;;-5.33;100.00
45403;BME280;47427;51.976;5.326;2022-12-18T02:21:32;102803.63;;;-5.32;100.00
45403;BME280;47427;51.976;5.326;2022-12-18T02:25:20;102804.38;;;-5.33;100.00
45403;BME280;47427;51.976;5.326;2022-12-18T02:29:10;102797.59;;;-5.40;100.00
45403;BME280;47427;51.976;5.326;2022-12-18T02:32:42;102792.31;;;-5.41;100.00
45403;BME280;47427;51.976;5.326;2022-12-18T02:36:05;102795.22;;;-5.38;100.00
45403;BME280;47427;51.976;5.326;2022-12-18T02:39:49;102791.56;;;-5.40;100.00
45403;BME280;47427;51.976;5.326;2022-12-18T02:43:16;102783.72;;;-5.49;100.00
45403;BME280;47427;51.976;5.326;2022-12-18T02:46:48;102789.00;;;-5.48;100.00
45403;BME280;47427;51.976;5.326;2022-12-18T02:50:36;102782.22;;;-5.47;100.00
45403;BME280;47427;51.976;5.326;2022-12-18T02:54:35;102782.41;;;-5.53;100.00
45403;BME280;47427;51.976;5.326;2022-12-18T03:01:39;102789.31;;;-5.66;100.00
45403;BME280;47427;51.976;5.326;2022-12-18T03:05:14;102786.25;;;-5.56;100.00
45403;BME280;47427;51.976;5.326;2022-12-18T03:08:47;102761.16;;;-5.73;100.00
45403;BME280;47427;51.976;5.326;2022-12-18T03:12:37;102755.31;;;-5.72;100.00
45403;BME280;47427;51.976;5.326;2022-12-18T03:16:06;102756.25;;;-5.72;100.00
45403;BME280;47427;51.976;5.326;2022-12-18T03:19:33;102742.91;;;-5.76;100.00
45403;BME280;47427;51.976;5.326;2022-12-18T03:23:13;102731.53;;;-5.93;100.00
45403;BME280;47427;51.976;5.326;2022-12-18T03:26:46;102727.91;;;-5.80;100.00
45403;BME280;47427;51.976;5.326;2022-12-18T03:30:12;102724.97;;;-5.91;100.00
45403;BME280;47427;51.976;5.326;2022-12-18T03:34:04;102726.09;;;-5.89;100.00
45403;BME280;47427;51.976;5.326;2022-12-18T03:37:36;102734.50;;;-5.97;100.00
45403;BME280;47427;51.976;5.326;2022-12-18T03:41:30;102737.75;;;-5.98;100.00
45403;BME280;47427;51.976;5.326;2022-12-18T03:45:36;102728.28;;;-5.99;100.00
45403;BME280;47427;51.976;5.326;2022-12-18T03:57:07;102726.78;;;-6.11;100.00
45403;BME280;47427;51.976;5.326;2022-12-18T04:00:33;102729.16;;;-6.13;100.00
45403;BME280;47427;51.976;5.326;2022-12-18T04:04:02;102719.47;;;-6.08;100.00
45403;BME280;47427;51.976;5.326;2022-12-18T04:07:29;102719.34;;;-6.02;100.00
45403;BME280;47427;51.976;5.326;2022-12-18T04:10:53;102708.34;;;-6.08;100.00
45403;BME280;47427;51.976;5.326;2022-12-18T04:14:15;102708.56;;;-6.07;100.00
45403;BME280;47427;51.976;5.326;2022-12-18T04:17:38;102708.38;;;-6.01;100.00
45403;BME280;47427;51.976;5.326;2022-12-18T04:21:04;102701.59;;;-6.08;100.00
45403;BME280;47427;51.976;5.326;2022-12-18T04:24:25;102702.50;;;-6.15;100.00
45403;BME280;47427;51.976;5.326;2022-12-18T04:27:58;102704.69;;;-6.18;100.00
45403;BME280;47427;51.976;5.326;2022-12-18T04:31:20;102698.13;;;-6.08;100.00
45403;BME280;47427;51.976;5.326;2022-12-18T04:34:42;102701.78;;;-6.06;100.00
45403;BME280;47427;51.976;5.326;2022-12-18T04:38:06;102713.09;;;-6.12;100.00
45403;BME280;47427;51.976;5.326;2022-12-18T04:41:31;102727.84;;;-6.16;100.00
45403;BME280;47427;51.976;5.326;2022-12-18T04:44:54;102736.78;;;-6.20;100.00
45403;BME280;47427;51.976;5.326;2022-12-18T04:48:21;102737.13;;;-6.24;100.00
45403;BME280;47427;51.976;5.326;2022-12-18T04:51:43;102726.53;;;-6.27;100.00
45403;BME280;47427;51.976;5.326;2022-12-18T04:55:07;102735.06;;;-6.34;100.00
45403;BME280;47427;51.976;5.326;2022-12-18T04:58:30;102729.09;;;-6.27;100.00
45403;BME280;47427;51.976;5.326;2022-12-18T05:01:53;102737.06;;;-6.38;100.00
45403;BME280;47427;51.976;5.326;2022-12-18T05:05:15;102746.41;;;-6.32;100.00
45403;BME280;47427;51.976;5.326;2022-12-18T05:08:38;102744.00;;;-6.37;100.00
45403;BME280;47427;51.976;5.326;2022-12-18T05:12:01;102747.50;;;-6.29;100.00
45403;BME280;47427;51.976;5.326;2022-12-18T05:15:32;102765.19;;;-6.31;100.00
45403;BME280;47427;51.976;5.326;2022-12-18T05:18:55;102758.97;;;-6.33;100.00
45403;BME280;47427;51.976;5.326;2022-12-18T05:22:18;102750.75;;;-6.30;100.00
45403;BME280;47427;51.976;5.326;2022-12-18T05:25:41;102758.25;;;-6.32;100.00
45403;BME280;47427;51.976;5.326;2022-12-18T05:29:03;102763.53;;;-6.30;100.00
45403;BME280;47427;51.976;5.326;2022-12-18T05:32:26;102750.94;;;-6.36;100.00
45403;BME280;47427;51.976;5.326;2022-12-18T05:35:58;102769.97;;;-6.27;100.00
45403;BME280;47427;51.976;5.326;2022-12-18T05:39:20;102761.81;;;-6.17;100.00
45403;BME280;47427;51.976;5.326;2022-12-18T05:42:43;102756.50;;;-6.19;100.00
45403;BME280;47427;51.976;5.326;2022-12-18T05:46:14;102761.59;;;-6.19;100.00
45403;BME280;47427;51.976;5.326;2022-12-18T05:49:37;102739.66;;;-6.31;100.00
45403;BME280;47427;51.976;5.326;2022-12-18T05:52:58;102749.69;;;-6.33;100.00
45403;BME280;47427;51.976;5.326;2022-12-18T05:56:22;102733.13;;;-6.22;100.00
45403;BME280;47427;51.976;5.326;2022-12-18T05:59:44;102723.09;;;-6.13;100.00
45403;BME280;47427;51.976;5.326;2022-12-18T06:03:08;102711.38;;;-6.25;100.00
45403;BME280;47427;51.976;5.326;2022-12-18T06:06:30;102724.94;;;-6.19;100.00
45403;BME280;47427;51.976;5.326;2022-12-18T06:09:51;102652.78;;;-6.45;100.00
45403;BME280;47427;51.976;5.326;2022-12-18T06:13:13;102647.41;;;-6.61;100.00
45403;BME280;47427;51.976;5.326;2022-12-18T06:16:34;102709.38;;;-6.28;100.00
45403;BME280;47427;51.976;5.326;2022-12-18T06:19:56;102701.34;;;-6.31;100.00
45403;BME280;47427;51.976;5.326;2022-12-18T06:23:18;102704.25;;;-6.35;100.00
45403;BME280;47427;51.976;5.326;2022-12-18T06:26:40;102698.91;;;-6.44;100.00
45403;BME280;47427;51.976;5.326;2022-12-18T06:30:02;102720.13;;;-6.38;100.00
45403;BME280;47427;51.976;5.326;2022-12-18T06:33:26;102693.09;;;-6.43;100.00
45403;BME280;47427;51.976;5.326;2022-12-18T06:36:49;102692.84;;;-6.51;100.00
45403;BME280;47427;51.976;5.326;2022-12-18T06:40:11;102692.69;;;-6.46;100.00
45403;BME280;47427;51.976;5.326;2022-12-18T06:43:34;102696.53;;;-6.49;100.00
45403;BME280;47427;51.976;5.326;2022-12-18T06:46:56;102693.22;;;-6.48;100.00
45403;BME280;47427;51.976;5.326;2022-12-18T06:50:19;102684.91;;;-6.33;100.00
45403;BME280;47427;51.976;5.326;2022-12-18T06:53:42;102673.00;;;-6.47;100.00
45403;BME280;47427;51.976;5.326;2022-12-18T06:57:05;102655.88;;;-6.48;100.00
45403;BME280;47427;51.976;5.326;2022-12-18T07:00:28;102668.63;;;-6.41;100.00
45403;BME280;47427;51.976;5.326;2022-12-18T07:03:56;102665.38;;;-6.40;100.00
45403;BME280;47427;51.976;5.326;2022-12-18T07:07:19;102658.97;;;-6.50;100.00
45403;BME280;47427;51.976;5.326;2022-12-18T07:11:04;102659.34;;;-6.47;100.00
45403;BME280;47427;51.976;5.326;2022-12-18T07:14:27;102654.78;;;-6.43;100.00
45403;BME280;47427;51.976;5.326;2022-12-18T07:17:50;102604.50;;;-6.71;100.00
45403;BME280;47427;51.976;5.326;2022-12-18T07:21:19;102625.06;;;-6.42;100.00
45403;BME280;47427;51.976;5.326;2022-12-18T07:24:42;102633.47;;;-6.36;100.00
45403;BME280;47427;51.976;5.326;2022-12-18T07:28:06;102616.09;;;-6.53;100.00
45403;BME280;47427;51.976;5.326;2022-12-18T07:31:28;102622.31;;;-6.44;100.00
45403;BME280;47427;51.976;5.326;2022-12-18T07:34:51;102626.00;;;-6.35;100.00
45403;BME280;47427;51.976;5.326;2022-12-18T07:38:14;102578.50;;;-6.54;100.00
45403;BME280;47427;51.976;5.326;2022-12-18T07:41:37;102615.78;;;-6.20;100.00
45403;BME280;47427;51.976;5.326;2022-12-18T07:45:04;102611.81;;;-6.11;100.00
45403;BME280;47427;51.976;5.326;2022-12-18T07:48:28;102603.44;;;-5.96;100.00
45403;BME280;47427;51.976;5.326;2022-12-18T07:51:55;102601.19;;;-5.93;100.00
45403;BME280;47427;51.976;5.326;2022-12-18T07:55:18;102584.44;;;-5.98;100.00
45403;BME280;47427;51.976;5.326;2022-12-18T07:58:41;102588.44;;;-5.85;100.00
45403;BME280;47427;51.976;5.326;2022-12-18T08:02:04;102592.44;;;-5.66;100.00
45403;BME280;47427;51.976;5.326;2022-12-18T08:05:27;102588.44;;;-5.64;99.57
45403;BME280;47427;51.976;5.326;2022-12-18T08:08:52;102581.84;;;-5.48;99.20
45403;BME280;47427;51.976;5.326;2022-12-18T08:12:16;102589.28;;;-5.28;98.95
45403;BME280;47427;51.976;5.326;2022-12-18T08:15:38;102585.28;;;-5.26;98.56
45403;BME280;47427;51.976;5.326;2022-12-18T08:19:02;102604.28;;;-5.24;98.67
45403;BME280;47427;51.976;5.326;2022-12-18T08:22:25;102562.97;;;-5.27;98.29
45403;BME280;47427;51.976;5.326;2022-12-18T08:25:48;102600.53;;;-4.97;97.76
45403;BME280;47427;51.976;5.326;2022-12-18T08:29:12;102546.03;;;-5.40;97.29
45403;BME280;47427;51.976;5.326;2022-12-18T08:32:35;102593.03;;;-4.88;97.23
45403;BME280;47427;51.976;5.326;2022-12-18T08:36:02;102569.75;;;-4.75;96.91
45403;BME280;47427;51.976;5.326;2022-12-18T08:39:24;102622.34;;;-4.26;96.62
45403;BME280;47427;51.976;5.326;2022-12-18T08:42:47;102603.22;;;-4.37;96.56
45403;BME280;47427;51.976;5.326;2022-12-18T08:46:40;102609.25;;;-4.06;96.02
45403;BME280;47427;51.976;5.326;2022-12-18T08:50:04;102601.50;;;-3.99;95.13
45403;BME280;47427;51.976;5.326;2022-12-18T08:53:27;102575.97;;;-3.90;95.44
45403;BME280;47427;51.976;5.326;2022-12-18T08:56:50;102597.81;;;-3.71;94.58
45403;BME280;47427;51.976;5.326;2022-12-18T09:00:14;102564.88;;;-3.75;94.40
45403;BME280;47427;51.976;5.326;2022-12-18T09:03:37;102586.44;;;-3.50;93.33
45403;BME280;47427;51.976;5.326;2022-12-18T09:06:59;102543.97;;;-3.55;92.96
45403;BME280;47427;51.976;5.326;2022-12-18T09:10:22;102584.91;;;-3.24;92.27
45403;BME280;47427;51.976;5.326;2022-12-18T09:13:45;102577.81;;;-3.11;91.64
45403;BME280;47427;51.976;5.326;2022-12-18T09:17:08;102592.13;;;-2.97;90.70
45403;BME280;47427;51.976;5.326;2022-12-18T09:20:31;102598.34;;;-2.95;90.91
45403;BME280;47427;51.976;5.326;2022-12-18T09:23:55;102602.13;;;-2.44;90.37
45403;BME280;47427;51.976;5.326;2022-12-18T09:27:19;102612.97;;;-2.47;89.53
45403;BME280;47427;51.976;5.326;2022-12-18T09:30:46;102588.84;;;-2.56;89.17
45403;BME280;47427;51.976;5.326;2022-12-18T09:34:09;102585.88;;;-2.52;88.61
45403;BME280;47427;51.976;5.326;2022-12-18T09:37:32;102555.44;;;-2.80;88.46
45403;BME280;47427;51.976;5.326;2022-12-18T09:44:50;102566.97;;;-2.12;87.35
45403;BME280;47427;51.976;5.326;2022-12-18T09:48:31;102538.56;;;-2.29;87.31
45403;BME280;47427;51.976;5.326;2022-12-18T09:52:08;102509.69;;;-2.27;86.96
45403;BME280;47427;51.976;5.326;2022-12-18T09:55:45;102555.88;;;-2.20;86.60
45403;BME280;47427;51.976;5.326;2022-12-18T09:59:34;102529.03;;;-2.30;86.87
45403;BME280;47427;51.976;5.326;2022-12-18T10:03:08;102555.03;;;-2.03;86.68
45403;BME280;47427;51.976;5.326;2022-12-18T10:06:51;102554.91;;;-2.04;86.85
45403;BME280;47427;51.976;5.326;2022-12-18T10:21:34;102556.38;;;-1.73;85.50
45403;BME280;47427;51.976;5.326;2022-12-18T10:28:39;102547.56;;;-1.84;84.36
45403;BME280;47427;51.976;5.326;2022-12-18T10:32:04;102494.50;;;-2.08;84.72
45403;BME280;47427;51.976;5.326;2022-12-18T10:35:26;102528.53;;;-1.77;84.55
45403;BME280;47427;51.976;5.326;2022-12-18T10:38:48;102530.34;;;-1.76;83.75
45403;BME280;47427;51.976;5.326;2022-12-18T10:42:18;102526.78;;;-1.61;84.21
45403;BME280;47427;51.976;5.326;2022-12-18T10:49:35;102501.44;;;-1.05;82.98
45403;BME280;47427;51.976;5.326;2022-12-18T10:53:00;102512.03;;;-1.02;82.98
45403;BME280;47427;51.976;5.326;2022-12-18T10:56:27;102505.50;;;-0.90;83.11
45403;BME280;47427;51.976;5.326;2022-12-18T10:59:58;102494.16;;;-1.01;83.07
45403;BME280;47427;51.976;5.326;2022-12-18T11:03:39;102477.47;;;-1.22;82.97
45403;BME280;47427;51.976;5.326;2022-12-18T11:07:07;102476.41;;;-1.15;83.21
45403;BME280;47427;51.976;5.326;2022-12-18T11:10:36;102484.88;;;-0.99;82.81
45403;BME280;47427;51.976;5.326;2022-12-18T11:17:49;102476.19;;;-0.56;81.92
45403;BME280;47427;51.976;5.326;2022-12-18T11:21:13;102470.81;;;-0.85;81.93
45403;BME280;47427;51.976;5.326;2022-12-18T11:24:37;102442.63;;;-0.83;81.96
45403;BME280;47427;51.976;5.326;2022-12-18T11:28:03;102460.13;;;-0.53;81.29
45403;BME280;47427;51.976;5.326;2022-12-18T11:31:28;102456.50;;;-0.64;80.36
45403;BME280;47427;51.976;5.326;2022-12-18T11:35:13;102464.28;;;-0.73;80.03
45403;BME280;47427;51.976;5.326;2022-12-18T11:38:42;102462.41;;;-0.48;80.29
45403;BME280;47427;51.976;5.326;2022-12-18T11:42:23;102461.78;;;-0.45;79.29
45403;BME280;47427;51.976;5.326;2022-12-18T11:46:34;102454.91;;;-0.27;79.33
45403;BME280;47427;51.976;5.326;2022-12-18T11:50:01;102449.34;;;-0.40;79.50
45403;BME280;47427;51.976;5.326;2022-12-18T11:53:26;102441.16;;;-0.45;78.64
45403;BME280;47427;51.976;5.326;2022-12-18T12:00:41;102413.19;;;-0.32;78.77
45403;BME280;47427;51.976;5.326;2022-12-18T12:04:46;102415.63;;;-0.33;79.37
45403;BME280;47427;51.976;5.326;2022-12-18T12:16:57;102385.44;;;-0.34;78.48
45403;BME280;47427;51.976;5.326;2022-12-18T12:35:52;102377.09;;;-0.32;78.86
45403;BME280;47427;51.976;5.326;2022-12-18T12:39:23;102342.34;;;-0.27;78.86
45403;BME280;47427;51.976;5.326;2022-12-18T12:42:55;102348.66;;;-0.23;78.70
45403;BME280;47427;51.976;5.326;2022-12-18T12:46:39;102339.19;;;-0.33;79.03
45403;BME280;47427;51.976;5.326;2022-12-18T12:50:11;102336.41;;;-0.26;78.74
45403;BME280;47427;51.976;5.326;2022-12-18T12:53:37;102338.59;;;-0.11;78.02
45403;BME280;47427;51.976;5.326;2022-12-18T12:57:39;102331.31;;;0.12;77.95
45403;BME280;47427;51.976;5.326;2022-12-18T13:01:20;102341.06;;;0.25;77.61
45403;BME280;47427;51.976;5.326;2022-12-18T13:08:57;102335.13;;;0.07;78.05
45403;BME280;47427;51.976;5.326;2022-12-18T13:12:20;102318.28;;;0.11;78.09
45403;BME280;47427;51.976;5.326;2022-12-18T13:16:07;102324.00;;;0.17;78.08
45403;BME280;47427;51.976;5.326;2022-12-18T13:19:30;102332.00;;;0.20;77.07
45403;BME280;47427;51.976;5.326;2022-12-18T13:22:53;102306.47;;;0.04;77.75
45403;BME280;47427;51.976;5.326;2022-12-18T13:29:44;102312.69;;;0.06;77.81
45403;BME280;47427;51.976;5.326;2022-12-18T13:36:39;102309.16;;;0.33;77.33
45403;BME280;47427;51.976;5.326;2022-12-18T13:40:06;102315.28;;;0.06;77.71
45403;BME280;47427;51.976;5.326;2022-12-18T13:43:56;102308.84;;;0.30;77.89
45403;BME280;47427;51.976;5.326;2022-12-18T13:47:37;102292.75;;;0.14;78.12
45403;BME280;47427;51.976;5.326;2022-12-18T13:51:09;102277.34;;;0.05;77.98
45403;BME280;47427;51.976;5.326;2022-12-18T13:54:40;102278.31;;;0.16;77.30
45403;BME280;47427;51.976;5.326;2022-12-18T13:58:04;102250.63;;;-0.14;77.68
45403;BME280;47427;51.976;5.326;2022-12-18T14:01:26;102266.09;;;0.05;77.60
45403;BME280;47427;51.976;5.326;2022-12-18T14:04:49;102267.22;;;-0.02;77.70
45403;BME280;47427;51.976;5.326;2022-12-18T14:08:15;102263.81;;;0.08;77.83
45403;BME280;47427;51.976;5.326;2022-12-18T14:11:37;102264.09;;;0.11;77.69
45403;BME280;47427;51.976;5.326;2022-12-18T14:15:00;102267.34;;;-0.01;77.14
45403;BME280;47427;51.976;5.326;2022-12-18T14:18:46;102250.69;;;-0.04;78.32
45403;BME280;47427;51.976;5.326;2022-12-18T14:22:18;102247.13;;;0.04;78.02
45403;BME280;47427;51.976;5.326;2022-12-18T14:25:46;102244.06;;;-0.11;77.74
45403;BME280;47427;51.976;5.326;2022-12-18T14:29:25;102247.19;;;-0.24;78.57
45403;BME280;47427;51.976;5.326;2022-12-18T14:33:04;102229.97;;;-0.14;77.96
45403;BME280;47427;51.976;5.326;2022-12-18T14:36:28;102219.31;;;-0.09;78.54
45403;BME280;47427;51.976;5.326;2022-12-18T14:40:02;102229.72;;;-0.17;77.89
45403;BME280;47427;51.976;5.326;2022-12-18T14:43:30;102220.41;;;-0.15;78.31
45403;BME280;47427;51.976;5.326;2022-12-18T14:46:54;102215.25;;;-0.15;78.28
45403;BME280;47427;51.976;5.326;2022-12-18T14:50:15;102231.31;;;-0.09;77.97
45403;BME280;47427;51.976;5.326;2022-12-18T14:54:17;102231.34;;;-0.18;77.71
45403;BME280;47427;51.976;5.326;2022-12-18T14:57:36;102224.19;;;-0.31;78.16
45403;BME280;47427;51.976;5.326;2022-12-18T15:00:59;102218.78;;;-0.15;77.92
45403;BME280;47427;51.976;5.326;2022-12-18T15:04:35;102216.38;;;-0.22;77.66
45403;BME280;47427;51.976;5.326;2022-12-18T15:08:00;102140.69;;;-0.60;78.25
45403;BME280;47427;51.976;5.326;2022-12-18T15:11:34;102221.91;;;-0.09;78.28
45403;BME280;47427;51.976;5.326;2022-12-18T15:14:57;102212.50;;;-0.27;77.97
45403;BME280;47427;51.976;5.326;2022-12-18T15:18:29;102219.41;;;-0.17;78.19
45403;BME280;47427;51.976;5.326;2022-12-18T15:21:51;102212.50;;;-0.27;78.68
45403;BME280;47427;51.976;5.326;2022-12-18T15:25:42;102180.63;;;-0.47;79.09
45403;BME280;47427;51.976;5.326;2022-12-18T15:29:04;102198.81;;;-0.45;79.12
45403;BME280;47427;51.976;5.326;2022-12-18T15:32:25;102174.75;;;-0.54;79.22
45403;BME280;47427;51.976;5.326;2022-12-18T15:35:57;102203.84;;;-0.28;78.57
45403;BME280;47427;51.976;5.326;2022-12-18T15:39:19;102200.75;;;-0.24;78.51
45403;BME280;47427;51.976;5.326;2022-12-18T15:42:41;102184.41;;;-0.43;78.42
45403;BME280;47427;51.976;5.326;2022-12-18T15:46:24;102150.50;;;-0.56;78.93
45403;BME280;47427;51.976;5.326;2022-12-18T15:49:47;102187.72;;;-0.44;79.83
45403;BME280;47427;51.976;5.326;2022-12-18T15:53:10;102183.00;;;-0.39;79.71
45403;BME280;47427;51.976;5.326;2022-12-18T15:56:33;102187.16;;;-0.31;79.41
45403;BME280;47427;51.976;5.326;2022-12-18T16:00:13;102176.94;;;-0.40;79.21
45403;BME280;47427;51.976;5.326;2022-12-18T16:03:35;102149.97;;;-0.62;79.61
45403;BME280;47427;51.976;5.326;2022-12-18T16:06:58;102168.63;;;-0.46;79.49
45403;BME280;47427;51.976;5.326;2022-12-18T16:10:20;102151.84;;;-0.51;79.45
45403;BME280;47427;51.976;5.326;2022-12-18T16:13:41;102165.97;;;-0.18;78.85
45403;BME280;47427;51.976;5.326;2022-12-18T16:17:09;102158.44;;;-0.26;78.63
45403;BME280;47427;51.976;5.326;2022-12-18T16:20:31;102151.28;;;-0.38;78.69
45403;BME280;47427;51.976;5.326;2022-12-18T16:23:52;102130.59;;;-0.30;78.82
45403;BME280;47427;51.976;5.326;2022-12-18T16:27:14;102126.34;;;-0.29;78.81
45403;BME280;47427;51.976;5.326;2022-12-18T16:30:36;102131.84;;;-0.35;78.70
45403;BME280;47427;51.976;5.326;2022-12-18T16:34:33;102136.16;;;-0.25;78.79
45403;BME280;47427;51.976;5.326;2022-12-18T16:37:55;102121.97;;;-0.30;78.81
45403;BME280;47427;51.976;5.326;2022-12-18T16:41:19;102107.19;;;-0.23;78.86
45403;BME280;47427;51.976;5.326;2022-12-18T16:45:15;102107.88;;;-0.34;79.05
45403;BME280;47427;51.976;5.326;2022-12-18T16:48:39;102104.81;;;-0.49;79.22
45403;BME280;47427;51.976;5.326;2022-12-18T16:52:03;102108.00;;;-0.51;78.74
45403;BME280;47427;51.976;5.326;2022-12-18T16:55:25;102104.75;;;-0.40;79.36
45403;BME280;47427;51.976;5.326;2022-12-18T16:58:53;102100.28;;;-0.32;78.64
45403;BME280;47427;51.976;5.326;2022-12-18T17:02:22;102101.50;;;-0.18;79.69
45403;BME280;47427;51.976;5.326;2022-12-18T17:05:45;102103.34;;;-0.17;78.38
45403;BME280;47427;51.976;5.326;2022-12-18T17:09:13;102106.72;;;-0.08;78.56
45403;BME280;47427;51.976;5.326;2022-12-18T17:12:35;102049.88;;;-0.29;77.80
45403;BME280;47427;51.976;5.326;2022-12-18T17:16:06;102110.44;;;-0.15;78.19
45403;BME280;47427;51.976;5.326;2022-12-18T17:19:28;102105.91;;;-0.17;79.10
45403;BME280;47427;51.976;5.326;2022-12-18T17:22:52;102111.44;;;-0.13;78.15
45403;BME280;47427;51.976;5.326;2022-12-18T17:26:15;102104.66;;;-0.12;78.46
45403;BME280;47427;51.976;5.326;2022-12-18T17:29:38;102100.44;;;-0.02;78.04
45403;BME280;47427;51.976;5.326;2022-12-18T17:33:01;102100.00;;;-0.06;78.58
45403;BME280;47427;51.976;5.326;2022-12-18T17:36:23;102098.47;;;-0.04;77.90
45403;BME280;47427;51.976;5.326;2022-12-18T17:39:46;102105.38;;;-0.13;78.31
45403;BME280;47427;51.976;5.326;2022-12-18T17:43:10;102117.19;;;-0.07;79.12
45403;BME280;47427;51.976;5.326;2022-12-18T17:46:33;102101.44;;;-0.10;78.57
45403;BME280;47427;51.976;5.326;2022-12-18T17:49:55;102102.22;;;-0.01;78.45
45403;BME280;47427;51.976;5.326;2022-12-18T17:53:17;102099.34;;;0.15;77.84
45403;BME280;47427;51.976;5.326;2022-12-18T17:56:38;102103.44;;;0.03;77.97
45403;BME280;47427;51.976;5.326;2022-12-18T18:00:00;102096.22;;;0.09;78.05
45403;BME280;47427;51.976;5.326;2022-12-18T18:03:22;102104.88;;;0.20;77.65
45403;BME280;47427;51.976;5.326;2022-12-18T18:06:43;102090.28;;;0.10;78.04
45403;BME280;47427;51.976;5.326;2022-12-18T18:10:06;102081.59;;;-0.01;77.72
45403;BME280;47427;51.976;5.326;2022-12-18T18:13:27;102091.69;;;0.07;77.86
45403;BME280;47427;51.976;5.326;2022-12-18T18:17:08;102096.47;;;0.12;78.04
45403;BME280;47427;51.976;5.326;2022-12-18T18:20:30;102095.94;;;0.06;78.49
45403;BME280;47427;51.976;5.326;2022-12-18T18:23:52;102102.44;;;0.21;77.77
45403;BME280;47427;51.976;5.326;2022-12-18T18:27:14;102092.91;;;0.20;77.88
45403;BME280;47427;51.976;5.326;2022-12-18T18:30:36;102089.66;;;0.13;77.50
45403;BME280;47427;51.976;5.326;2022-12-18T18:33:57;102100.88;;;0.13;77.55
45403;BME280;47427;51.976;5.326;2022-12-18T18:37:19;102080.25;;;0.13;78.19
45403;BME280;47427;51.976;5.326;2022-12-18T18:40:59;102092.13;;;0.21;78.49
45403;BME280;47427;51.976;5.326;2022-12-18T18:44:41;102079.59;;;0.16;77.71
45403;BME280;47427;51.976;5.326;2022-12-18T18:48:04;102092.00;;;0.30;78.49
45403;BME280;47427;51.976;5.326;2022-12-18T18:51:27;102073.91;;;0.20;78.21
45403;BME280;47427;51.976;5.326;2022-12-18T18:54:50;102072.28;;;0.20;78.09
45403;BME280;47427;51.976;5.326;2022-12-18T18:58:11;102074.69;;;0.19;77.73
45403;BME280;47427;51.976;5.326;2022-12-18T19:01:34;102080.25;;;0.13;78.09
45403;BME280;47427;51.976;5.326;2022-12-18T19:04:56;102076.91;;;0.25;78.17
45403;BME280;47427;51.976;5.326;2022-12-18T19:08:18;102064.53;;;0.20;78.30
45403;BME280;47427;51.976;5.326;2022-12-18T19:11:39;102049.75;;;0.09;78.13
45403;BME280;47427;51.976;5.326;2022-12-18T19:15:19;102076.03;;;0.34;78.14
45403;BME280;47427;51.976;5.326;2022-12-18T19:18:42;102081.47;;;0.48;77.28
45403;BME280;47427;51.976;5.326;2022-12-18T19:22:23;102077.75;;;0.44;77.30
45403;BME280;47427;51.976;5.326;2022-12-18T19:25:46;102076.28;;;0.27;77.73